This is the latest recevied weather packets stored in our database for station/object 9W2SSS-1. If no packets are shown the sender has not sent any weather packets the latest 10 day(s).
| Time | Temp. | Humidity | Pressure | Rain* | Wind** | Luminosity | Snow |
|---|---|---|---|---|---|---|---|
| 1777818201 | 30° C | 68% | 1008.8 hPa | - | - | - | - |
| 1777817001 | 30° C | 68% | 1008.5 hPa | - | - | - | - |
| 1777815801 | 30° C | 67% | 1008.4 hPa | - | - | - | - |
| 1777814601 | 30° C | 67% | 1008.5 hPa | - | - | - | - |
| 1777813401 | 30° C | 67% | 1008.3 hPa | - | - | - | - |
| 1777812201 | 30° C | 68% | 1008.1 hPa | - | - | - | - |
| 1777811001 | 30° C | 69% | 1008.1 hPa | - | - | - | - |
| 1777809801 | 30° C | 69% | 1008.3 hPa | - | - | - | - |
| 1777808600 | 30° C | 67% | 1007.8 hPa | - | - | - | - |
| 1777807400 | 30.56° C | 66% | 1007.7 hPa | - | - | - | - |
| 1777806200 | 31.11° C | 62% | 1007.3 hPa | - | - | - | - |
| 1777803804 | 31.67° C | 62% | 1006.5 hPa | - | - | - | - |
| 1777802603 | 31.67° C | 62% | 1006.6 hPa | - | - | - | - |
| 1777801403 | 31.67° C | 61% | 1006.5 hPa | - | - | - | - |
| 1777800203 | 31.67° C | 61% | 1006.9 hPa | - | - | - | - |
| 1777799003 | 31.67° C | 62% | 1006.7 hPa | - | - | - | - |
| 1777797803 | 31.67° C | 63% | 1006.6 hPa | - | - | - | - |
| 1777796603 | 31.67° C | 63% | 1006.7 hPa | - | - | - | - |
| 1777795403 | 31.67° C | 62% | 1007.1 hPa | - | - | - | - |
| 1777794203 | 31.11° C | 62% | 1007.2 hPa | - | - | - | - |
| 1777793003 | 31.11° C | 57% | 1007.3 hPa | - | - | - | - |
| 1777791803 | 31.67° C | 58% | 1007.2 hPa | - | - | - | - |
| 1777790603 | 31.67° C | 63% | 1007.2 hPa | - | - | - | - |
| 1777789402 | 31.67° C | 63% | 1007.9 hPa | - | - | - | - |
| 1777788202 | 33.89° C | 60% | 1007.3 hPa | - | - | - | - |
* Rain since midnight (hover to see other rain measurements)
** Current wind speed in m/s (hover to see current wind gust speed)